Time;durP1;ratioP1;P1;durP2;ratioP2;P2;SDS_P1;SDS_P2;PMS_P1;PMS_P2;Temp;Humidity;BMP_temperature;BMP_pressure;BME280_temperature;BME280_humidity;BME280_pressure;Samples;Min_cycle;Max_cycle;Signal;HPM_P1;HPM_P2
2022/03/05 00:00:45;;;;;;;20.00;13.45;;;2.60;97.20;;;;;;6263568;22;20565;-72
2022/03/05 00:03:12;;;;;;;19.15;13.38;;;2.70;97.10;;;;;;6237387;22;20008;-77
2022/03/05 00:05:38;;;;;;;10.65;7.85;;;2.80;96.80;;;;;;6263306;22;20106;-75
2022/03/05 00:08:04;;;;;;;14.70;9.55;;;2.90;96.20;;;;;;6265880;22;20103;-80
2022/03/05 00:10:30;;;;;;;17.77;12.00;;;2.90;96.10;;;;;;6266764;22;20008;-79
2022/03/05 00:12:56;;;;;;;19.00;13.68;;;2.90;96.00;;;;;;6266711;22;20389;-78
2022/03/05 00:15:24;;;;;;;13.95;9.82;;;3.00;95.70;;;;;;6266660;22;20012;-77
2022/03/05 00:17:51;;;;;;;20.90;13.80;;;3.10;95.50;;;;;;6265520;22;20004;-78
2022/03/05 00:20:18;;;;;;;46.10;26.08;;;3.10;95.20;;;;;;6265088;22;20007;-79
2022/03/05 00:22:45;;;;;;;16.58;12.48;;;3.20;94.80;;;;;;6267421;22;20083;-80
2022/03/05 00:25:12;;;;;;;18.77;11.30;;;3.20;94.90;;;;;;6264374;22;20110;-80
2022/03/05 00:27:38;;;;;;;18.00;9.10;;;3.20;94.20;;;;;;6264999;22;19999;-76
2022/03/05 00:30:05;;;;;;;17.30;12.20;;;3.30;93.70;;;;;;6265448;22;20409;-76
2022/03/05 00:32:30;;;;;;;13.48;9.20;;;3.30;94.00;;;;;;6264978;22;20376;-76
2022/03/05 00:34:56;;;;;;;13.57;8.85;;;3.30;93.70;;;;;;6265989;22;20030;-75
2022/03/05 00:37:22;;;;;;;10.88;8.27;;;3.30;93.70;;;;;;6265091;22;20018;-77
2022/03/05 00:39:48;;;;;;;11.45;6.38;;;3.20;93.50;;;;;;6265933;22;20058;-77
2022/03/05 00:42:14;;;;;;;11.60;7.28;;;3.10;93.00;;;;;;6264684;22;20436;-77
2022/03/05 00:44:40;;;;;;;12.65;7.05;;;2.90;93.00;;;;;;6264772;22;20021;-76
2022/03/05 00:47:06;;;;;;;8.40;6.30;;;2.80;93.80;;;;;;6265838;22;20011;-77
2022/03/05 00:49:32;;;;;;;7.88;6.10;;;2.90;94.70;;;;;;6266604;22;20031;-77
2022/03/05 00:51:58;;;;;;;10.05;6.10;;;2.90;95.30;;;;;;6265808;22;20008;-77
2022/03/05 00:54:23;;;;;;;10.77;7.88;;;2.90;95.70;;;;;;6264092;22;20000;-76
2022/03/05 00:56:49;;;;;;;11.85;7.60;;;2.80;95.50;;;;;;6265689;22;20003;-76
2022/03/05 00:59:14;;;;;;;9.35;6.43;;;2.90;95.40;;;;;;6265874;22;20104;-76
2022/03/05 01:01:41;;;;;;;8.98;6.68;;;2.90;95.80;;;;;;6265358;22;20004;-77
2022/03/05 01:04:07;;;;;;;11.88;7.40;;;2.90;95.70;;;;;;6265370;22;20003;-77
2022/03/05 01:06:33;;;;;;;10.65;7.80;;;2.90;95.70;;;;;;6266932;22;20442;-77
2022/03/05 01:09:04;;;;;;;13.30;9.45;;;2.90;95.70;;;;;;6262529;22;20015;-77
2022/03/05 01:11:30;;;;;;;11.73;7.93;;;2.80;96.10;;;;;;6266084;22;20011;-77
2022/03/05 01:13:56;;;;;;;11.50;6.50;;;2.80;96.60;;;;;;6264327;22;20008;-77
2022/03/05 01:16:22;;;;;;;10.38;7.78;;;2.80;96.60;;;;;;6264822;22;20014;-77
2022/03/05 01:18:48;;;;;;;10.93;8.23;;;2.80;96.20;;;;;;6265621;22;20086;-77
2022/03/05 01:21:14;;;;;;;10.68;7.70;;;2.80;96.30;;;;;;6264577;22;20004;-77
2022/03/05 01:23:40;;;;;;;9.55;6.63;;;2.80;96.30;;;;;;6266157;22;20007;-77
2022/03/05 01:26:05;;;;;;;9.80;6.32;;;2.80;96.60;;;;;;6265881;22;20437;-77
2022/03/05 01:28:31;;;;;;;9.55;6.60;;;2.80;96.50;;;;;;6265586;22;20000;-77
2022/03/05 01:30:57;;;;;;;9.00;6.47;;;2.80;96.40;;;;;;6264190;22;20664;-77
2022/03/05 01:33:23;;;;;;;9.82;6.47;;;2.80;96.70;;;;;;6265382;22;20004;-77
2022/03/05 01:35:49;;;;;;;10.35;6.78;;;2.80;96.70;;;;;;6265317;22;20459;-77
2022/03/05 01:38:16;;;;;;;7.90;5.93;;;2.80;96.70;;;;;;6264848;22;19995;-77
2022/03/05 01:40:42;;;;;;;9.65;6.68;;;2.70;97.10;;;;;;6265054;22;20003;-77
2022/03/05 01:43:09;;;;;;;11.48;6.68;;;2.70;97.20;;;;;;6236809;22;20401;-76
2022/03/05 01:45:35;;;;;;;9.25;6.15;;;2.70;97.40;;;;;;6264678;22;20103;-69
2022/03/05 01:48:01;;;;;;;9.15;6.70;;;2.70;97.20;;;;;;6264024;22;20175;-69
2022/03/05 01:50:28;;;;;;;11.30;5.93;;;2.60;97.20;;;;;;6262452;22;20389;-69
2022/03/05 01:52:55;;;;;;;8.80;6.38;;;2.60;97.50;;;;;;6265767;22;20004;-69
2022/03/05 01:55:20;;;;;;;6.25;4.85;;;2.60;97.40;;;;;;6264743;22;20003;-69
2022/03/05 01:57:46;;;;;;;7.50;4.78;;;2.60;97.10;;;;;;6264969;22;20088;-69
2022/03/05 02:00:14;;;;;;;8.57;5.63;;;2.60;96.80;;;;;;6264949;22;20008;-69
2022/03/05 02:02:42;;;;;;;8.50;5.55;;;2.50;97.10;;;;;;6264708;22;20004;-69
2022/03/05 02:05:09;;;;;;;6.70;4.50;;;2.50;97.30;;;;;;6263882;22;20012;-69
2022/03/05 02:07:35;;;;;;;7.10;4.78;;;2.50;96.90;;;;;;6264527;22;20030;-69
2022/03/05 02:10:00;;;;;;;5.68;4.25;;;2.30;96.70;;;;;;6265203;22;20548;-69
2022/03/05 02:12:30;;;;;;;6.57;4.65;;;2.20;97.10;;;;;;6265937;22;20023;-69
2022/03/05 02:14:58;;;;;;;8.57;5.50;;;2.20;97.20;;;;;;6264132;22;20008;-69
2022/03/05 02:17:24;;;;;;;7.50;5.00;;;2.30;97.00;;;;;;6264768;22;20321;-69
2022/03/05 02:19:50;;;;;;;9.30;6.75;;;2.40;96.60;;;;;;6265290;22;20057;-69
2022/03/05 02:22:16;;;;;;;6.82;5.00;;;2.40;96.60;;;;;;6265599;22;20007;-69
2022/03/05 02:24:42;;;;;;;8.77;6.35;;;2.40;96.70;;;;;;6265456;22;20380;-69
2022/03/05 02:27:08;;;;;;;7.70;5.70;;;2.50;96.70;;;;;;6264981;22;20037;-69
2022/03/05 02:29:35;;;;;;;8.85;5.90;;;2.70;96.50;;;;;;6264518;22;20336;-69
2022/03/05 02:32:04;;;;;;;8.35;6.15;;;2.70;96.30;;;;;;6264002;22;20168;-69
2022/03/05 02:34:30;;;;;;;11.02;7.10;;;2.70;96.20;;;;;;6264647;22;20004;-69
2022/03/05 02:36:57;;;;;;;7.57;5.35;;;2.70;96.50;;;;;;6265202;22;20038;-69
2022/03/05 02:39:26;;;;;;;9.18;4.70;;;2.40;96.80;;;;;;6264912;22;20008;-69
2022/03/05 02:41:55;;;;;;;6.60;4.55;;;2.30;97.30;;;;;;6263522;22;20003;-77
2022/03/05 02:44:21;;;;;;;7.28;5.50;;;2.20;97.30;;;;;;6264164;22;20019;-77
2022/03/05 02:46:47;;;;;;;9.68;6.07;;;2.20;97.40;;;;;;6264575;22;20020;-77
2022/03/05 02:49:13;;;;;;;8.15;6.10;;;2.10;97.40;;;;;;6262283;22;20018;-77
2022/03/05 02:51:39;;;;;;;10.25;6.60;;;2.20;97.70;;;;;;6265457;22;20090;-77
2022/03/05 02:54:05;;;;;;;8.38;5.47;;;2.30;97.10;;;;;;6264429;22;20069;-76
2022/03/05 02:56:31;;;;;;;9.13;6.53;;;2.40;95.80;;;;;;6264999;22;20121;-77
2022/03/05 02:58:57;;;;;;;11.15;6.88;;;2.40;96.40;;;;;;6263517;22;20642;-77
2022/03/05 03:01:23;;;;;;;11.85;6.78;;;2.50;96.30;;;;;;6262056;22;20003;-77
2022/03/05 03:03:49;;;;;;;13.40;9.05;;;2.50;96.10;;;;;;6263004;22;20344;-77
2022/03/05 03:06:15;;;;;;;14.07;8.30;;;2.60;96.10;;;;;;6263720;22;20139;-77
2022/03/05 03:08:41;;;;;;;15.80;9.55;;;2.60;96.00;;;;;;6262997;22;20007;-77
2022/03/05 03:11:06;;;;;;;12.65;9.23;;;2.70;96.00;;;;;;6263342;22;20145;-76
2022/03/05 03:13:32;;;;;;;14.40;10.20;;;2.70;96.30;;;;;;6264484;22;20429;-77
2022/03/05 03:15:58;;;;;;;14.13;9.82;;;2.70;96.00;;;;;;6264125;22;20567;-77
2022/03/05 03:18:23;;;;;;;13.45;8.98;;;2.80;95.60;;;;;;6264266;22;20729;-77
2022/03/05 03:20:49;;;;;;;12.65;8.95;;;2.80;95.50;;;;;;6265761;22;20026;-77
2022/03/05 03:23:14;;;;;;;12.57;9.93;;;2.80;95.00;;;;;;6267382;22;20004;-77
2022/03/05 03:25:40;;;;;;;13.50;8.77;;;2.90;95.20;;;;;;6265083;22;20012;-77
2022/03/05 03:28:07;;;;;;;15.73;8.68;;;2.90;95.00;;;;;;6267945;22;20027;-76
2022/03/05 03:30:32;;;;;;;14.52;10.23;;;2.70;96.20;;;;;;6239123;22;20061;-77
2022/03/05 03:32:58;;;;;;;16.85;11.25;;;2.50;96.70;;;;;;6266267;22;19999;-77
2022/03/05 03:35:24;;;;;;;14.60;10.70;;;2.30;97.10;;;;;;6265862;22;20003;-77
2022/03/05 03:37:50;;;;;;;14.52;10.10;;;2.10;97.50;;;;;;6268231;22;20325;-77
2022/03/05 03:40:17;;;;;;;15.77;11.57;;;2.20;97.60;;;;;;6266779;22;20019;-77
2022/03/05 03:42:45;;;;;;;15.88;11.05;;;2.20;97.60;;;;;;6266318;22;20000;-77
2022/03/05 03:45:11;;;;;;;14.82;10.35;;;2.30;97.30;;;;;;6265061;22;20027;-77
2022/03/05 03:47:38;;;;;;;14.68;10.18;;;2.40;97.10;;;;;;6266416;22;20106;-77
2022/03/05 03:50:05;;;;;;;15.23;10.07;;;2.40;97.30;;;;;;6266015;22;20003;-77
2022/03/05 03:52:31;;;;;;;13.68;8.73;;;2.40;97.10;;;;;;6267072;22;20008;-77
2022/03/05 03:54:57;;;;;;;15.98;9.93;;;2.30;97.00;;;;;;6266832;22;20094;-76
2022/03/05 03:57:23;;;;;;;14.85;9.77;;;2.20;97.10;;;;;;6265571;22;20004;-77
2022/03/05 03:59:51;;;;;;;15.60;10.20;;;2.20;97.60;;;;;;6266658;22;20021;-77
2022/03/05 04:02:18;;;;;;;16.30;11.57;;;2.20;97.50;;;;;;6266052;22;20025;-77
2022/03/05 04:04:44;;;;;;;15.23;10.88;;;2.10;97.70;;;;;;6266148;22;20003;-76
2022/03/05 04:09:54;;;;;;;18.00;11.27;;;1.80;98.60;;;;;;6264707;22;20077;-77
2022/03/05 04:12:21;;;;;;;15.20;10.95;;;1.90;98.60;;;;;;6263494;22;20003;-77
2022/03/05 04:14:47;;;;;;;22.40;13.80;;;2.10;98.40;;;;;;6265511;22;20003;-77
2022/03/05 04:17:13;;;;;;;19.35;12.80;;;2.30;97.50;;;;;;6266626;22;20003;-77
2022/03/05 04:19:39;;;;;;;18.08;11.23;;;2.30;97.80;;;;;;6266133;22;20011;-77
2022/03/05 04:22:05;;;;;;;19.45;13.10;;;2.30;98.00;;;;;;6265333;22;20011;-77
2022/03/05 04:24:31;;;;;;;18.10;12.68;;;2.20;98.10;;;;;;6238689;22;20050;-77
2022/03/05 04:26:57;;;;;;;20.73;13.73;;;2.20;98.10;;;;;;6266029;22;20043;-77
2022/03/05 04:29:23;;;;;;;19.08;13.48;;;2.20;98.00;;;;;;6265461;22;20421;-78
2022/03/05 04:31:48;;;;;;;20.25;12.98;;;2.30;98.10;;;;;;6269156;22;20333;-77
2022/03/05 04:34:15;;;;;;;17.80;12.35;;;2.30;98.00;;;;;;6266329;22;20018;-77
2022/03/05 04:36:40;;;;;;;17.77;12.20;;;2.30;98.00;;;;;;6266038;22;20144;-77
2022/03/05 04:39:06;;;;;;;19.08;13.25;;;2.40;97.80;;;;;;6266211;22;20452;-77
2022/03/05 04:41:32;;;;;;;18.77;11.70;;;2.30;97.90;;;;;;6266099;22;20034;-76
2022/03/05 04:43:57;;;;;;;18.60;12.45;;;2.20;98.20;;;;;;6264057;22;20119;-76
2022/03/05 04:46:23;;;;;;;16.90;11.40;;;2.30;97.90;;;;;;6265822;22;20094;-76
2022/03/05 04:48:49;;;;;;;15.70;11.05;;;2.20;97.70;;;;;;6266735;22;20453;-77
2022/03/05 04:51:14;;;;;;;14.73;10.50;;;2.10;98.00;;;;;;6264288;22;20007;-77
2022/03/05 04:53:40;;;;;;;15.00;10.55;;;2.10;98.50;;;;;;6265100;22;20008;-77
2022/03/05 04:56:06;;;;;;;13.52;10.65;;;2.10;98.40;;;;;;6266971;22;20092;-76
2022/03/05 04:58:31;;;;;;;14.35;10.05;;;2.20;98.10;;;;;;6264397;22;20063;-76
2022/03/05 05:00:57;;;;;;;17.30;10.98;;;2.30;97.70;;;;;;6264400;22;20031;-76
2022/03/05 05:03:23;;;;;;;15.77;10.90;;;2.30;97.70;;;;;;6264687;22;20029;-77
2022/03/05 05:05:48;;;;;;;18.30;11.90;;;2.20;98.00;;;;;;6265536;22;20384;-77
2022/03/05 05:08:14;;;;;;;16.85;11.20;;;2.30;98.30;;;;;;6265264;22;20004;-77
2022/03/05 05:10:40;;;;;;;16.90;11.90;;;2.30;98.00;;;;;;6267019;22;20080;-77
2022/03/05 05:13:05;;;;;;;18.83;12.40;;;2.20;97.80;;;;;;6263949;22;20016;-77
2022/03/05 05:15:31;;;;;;;20.17;12.65;;;2.10;98.00;;;;;;6266325;22;20095;-77
2022/03/05 05:17:59;;;;;;;16.25;11.88;;;2.00;98.10;;;;;;6265181;22;20019;-76
2022/03/05 05:20:25;;;;;;;18.08;12.60;;;1.90;98.50;;;;;;6264707;22;20011;-77
2022/03/05 05:22:50;;;;;;;17.00;11.60;;;1.90;98.70;;;;;;6265006;22;19999;-76
2022/03/05 05:25:16;;;;;;;17.85;12.15;;;2.00;98.80;;;;;;6265723;22;20024;-77
2022/03/05 05:27:42;;;;;;;16.17;12.27;;;2.00;98.70;;;;;;6265107;22;20325;-68
2022/03/05 05:30:09;;;;;;;17.15;12.00;;;2.00;98.90;;;;;;6263195;22;20014;-68
2022/03/05 05:32:35;;;;;;;17.50;12.77;;;2.00;99.00;;;;;;6265511;22;20003;-69
2022/03/05 05:35:01;;;;;;;16.27;12.32;;;2.10;98.80;;;;;;6265123;22;20126;-69
2022/03/05 05:37:27;;;;;;;19.52;12.32;;;2.10;98.50;;;;;;6265241;22;20449;-68
2022/03/05 05:39:52;;;;;;;17.35;11.45;;;2.10;98.30;;;;;;6265107;22;20528;-68
2022/03/05 05:42:18;;;;;;;15.32;10.40;;;2.10;98.30;;;;;;6265119;22;20007;-68
2022/03/05 05:44:44;;;;;;;17.33;11.70;;;2.20;98.30;;;;;;6264366;22;20038;-68
2022/03/05 05:47:09;;;;;;;17.92;12.98;;;2.20;98.20;;;;;;6265191;22;20019;-68
2022/03/05 05:49:36;;;;;;;16.30;11.52;;;2.20;98.40;;;;;;6264505;22;20007;-68
2022/03/05 05:52:03;;;;;;;17.77;12.07;;;2.20;98.50;;;;;;6264839;22;20421;-69
2022/03/05 05:54:28;;;;;;;16.73;12.35;;;2.20;98.40;;;;;;6264170;22;20000;-68
2022/03/05 05:56:54;;;;;;;17.00;11.32;;;2.30;98.40;;;;;;6266319;22;20011;-68
2022/03/05 05:59:20;;;;;;;16.75;11.48;;;2.30;98.40;;;;;;6264374;22;20141;-68
2022/03/05 06:01:46;;;;;;;15.80;10.85;;;2.20;98.70;;;;;;6264511;22;20023;-68
2022/03/05 06:04:11;;;;;;;16.60;11.85;;;2.20;98.90;;;;;;6265781;22;20389;-68
2022/03/05 06:06:37;;;;;;;16.55;11.93;;;2.20;98.90;;;;;;6237131;22;20046;-69
2022/03/05 06:09:03;;;;;;;16.80;11.60;;;2.30;98.90;;;;;;6265896;22;20367;-68
2022/03/05 06:11:30;;;;;;;17.05;12.32;;;2.30;98.70;;;;;;6264294;22;20007;-68
2022/03/05 06:13:56;;;;;;;16.92;11.00;;;2.30;98.50;;;;;;6265344;22;19999;-68
2022/03/05 06:16:22;;;;;;;19.73;11.85;;;2.30;98.70;;;;;;6237867;22;20019;-68
2022/03/05 06:18:47;;;;;;;19.05;10.00;;;2.40;98.30;;;;;;6262625;22;20004;-68
2022/03/05 06:21:14;;;;;;;18.80;10.90;;;2.40;97.60;;;;;;6264007;22;20015;-68
2022/03/05 06:23:40;;;;;;;17.27;10.95;;;2.40;97.90;;;;;;6264731;22;20302;-68
2022/03/05 06:26:06;;;;;;;13.98;9.57;;;2.30;98.20;;;;;;6265107;22;20015;-70
2022/03/05 06:28:33;;;;;;;13.38;9.85;;;2.20;98.30;;;;;;6265257;22;20008;-69
2022/03/05 06:30:58;;;;;;;27.83;10.02;;;2.30;98.50;;;;;;6261973;22;20064;-69
2022/03/05 07:36:20;;;;;;;17.85;10.15;;;3.10;96.00;;;;;;6298381;22;20058;-69
2022/03/05 07:38:45;;;;;;;17.70;10.00;;;3.30;95.30;;;;;;6297250;22;20707;-69
2022/03/05 07:41:12;;;;;;;18.83;12.20;;;3.40;94.40;;;;;;6296838;22;20007;-70
2022/03/05 07:43:38;;;;;;;17.42;12.02;;;3.50;94.10;;;;;;6297139;22;20339;-70
2022/03/05 07:46:04;;;;;;;17.85;12.65;;;3.50;93.50;;;;;;6296640;22;20015;-75
2022/03/05 07:48:30;;;;;;;21.35;13.50;;;3.60;93.80;;;;;;6296874;22;20340;-70
2022/03/05 07:50:59;;;;;;;20.85;14.32;;;3.60;93.80;;;;;;6297444;22;20015;-70
2022/03/05 07:53:26;;;;;;;26.15;16.13;;;3.60;94.20;;;;;;6297536;22;19999;-69
2022/03/05 07:55:52;;;;;;;24.70;16.30;;;3.60;94.30;;;;;;6296633;22;20127;-69
2022/03/05 07:58:18;;;;;;;32.45;16.48;;;3.80;94.50;;;;;;6296592;22;20034;-68
2022/03/05 08:00:43;;;;;;;27.00;17.80;;;3.90;94.20;;;;;;6295785;22;20003;-70
2022/03/05 08:03:09;;;;;;;23.80;16.77;;;3.90;94.10;;;;;;6297351;22;20365;-69
2022/03/05 08:05:34;;;;;;;24.98;15.88;;;4.00;93.80;;;;;;6294403;22;20050;-71
2022/03/05 08:08:00;;;;;;;21.38;15.27;;;4.10;93.50;;;;;;6295600;22;20003;-71
2022/03/05 08:10:26;;;;;;;21.27;14.02;;;4.10;93.40;;;;;;6300720;22;20357;-71
2022/03/05 08:12:52;;;;;;;20.25;14.35;;;4.00;93.50;;;;;;6305662;22;20091;-70
2022/03/05 08:15:18;;;;;;;18.45;12.98;;;3.90;93.40;;;;;;6300895;22;20105;-69
2022/03/05 08:17:50;;;;;;;21.15;12.30;;;3.90;93.10;;;;;;6303137;22;20317;-69
2022/03/05 08:20:17;;;;;;;18.25;12.45;;;3.90;92.50;;;;;;6301512;22;20012;-68
2022/03/05 08:22:42;;;;;;;21.05;13.32;;;3.90;92.50;;;;;;6303341;22;20005;-68
2022/03/05 08:25:08;;;;;;;16.85;11.93;;;4.00;92.60;;;;;;6304142;22;20035;-69
2022/03/05 08:27:34;;;;;;;52.72;14.60;;;4.10;91.90;;;;;;6303003;22;20130;-66
2022/03/05 08:29:59;;;;;;;19.90;12.48;;;4.20;91.90;;;;;;6296446;22;20137;-66
2022/03/05 08:32:25;;;;;;;16.48;11.82;;;4.30;91.40;;;;;;6296561;22;20000;-66
2022/03/05 08:34:51;;;;;;;20.65;11.02;;;4.40;90.60;;;;;;6295555;22;20121;-66
2022/03/05 08:37:16;;;;;;;18.65;12.50;;;4.40;90.30;;;;;;6298134;22;20003;-68
2022/03/05 08:39:42;;;;;;;21.55;11.52;;;4.50;88.20;;;;;;6297517;22;20293;-66
2022/03/05 08:42:08;;;;;;;18.15;12.70;;;4.40;90.00;;;;;;6297453;22;20089;-66
2022/03/05 08:44:34;;;;;;;17.17;11.27;;;4.30;89.20;;;;;;6297401;22;20015;-67
2022/03/05 08:46:59;;;;;;;21.65;12.73;;;4.30;89.40;;;;;;6297507;22;20019;-68
2022/03/05 08:49:26;;;;;;;44.08;12.27;;;4.20;88.50;;;;;;6296176;22;20010;-68
2022/03/05 08:51:52;;;;;;;79.10;15.02;;;4.20;88.60;;;;;;6296764;22;20018;-70
2022/03/05 08:54:20;;;;;;;39.22;13.35;;;4.10;88.70;;;;;;6297460;22;20003;-67
2022/03/05 08:56:46;;;;;;;226.80;21.40;;;4.10;90.00;;;;;;6297106;22;20094;-72
2022/03/05 08:59:12;;;;;;;54.70;11.15;;;4.10;90.30;;;;;;6295802;22;20030;-71
2022/03/05 09:01:38;;;;;;;181.00;16.30;;;4.20;88.80;;;;;;6297310;22;20321;-70
2022/03/05 09:04:04;;;;;;;21.45;10.20;;;4.40;88.50;;;;;;6295897;22;20425;-71
2022/03/05 09:06:29;;;;;;;39.55;11.50;;;4.50;88.60;;;;;;6296239;22;20011;-71
2022/03/05 09:08:57;;;;;;;18.08;10.15;;;4.60;88.20;;;;;;6295239;22;20056;-71
2022/03/05 09:11:22;;;;;;;14.85;10.20;;;4.70;87.90;;;;;;6293045;22;20003;-70
2022/03/05 09:13:48;;;;;;;13.13;9.18;;;4.80;88.30;;;;;;6292231;22;20010;-71
2022/03/05 09:16:15;;;;;;;12.02;8.93;;;4.90;87.80;;;;;;6294847;22;20011;-71
2022/03/05 09:18:41;;;;;;;12.45;8.85;;;5.00;86.80;;;;;;6292820;22;20003;-70
2022/03/05 09:21:07;;;;;;;13.43;10.07;;;5.10;86.70;;;;;;6294270;22;20003;-70
2022/03/05 09:23:33;;;;;;;23.33;18.92;;;5.20;86.70;;;;;;6293020;22;20004;-66
2022/03/05 09:25:59;;;;;;;12.60;9.93;;;5.30;86.80;;;;;;6292377;22;20660;-65
2022/03/05 09:28:25;;;;;;;13.65;8.70;;;5.50;84.70;;;;;;6293757;22;20003;-66
2022/03/05 09:30:50;;;;;;;12.98;8.93;;;5.60;83.50;;;;;;6293432;22;20416;-66
2022/03/05 09:33:16;;;;;;;15.63;10.07;;;5.80;84.80;;;;;;6294009;22;20038;-65
2022/03/05 09:35:43;;;;;;;20.20;14.10;;;5.90;84.70;;;;;;6293232;22;20443;-65
2022/03/05 09:38:10;;;;;;;59.10;37.40;;;6.00;80.90;;;;;;6292955;22;20016;-66
2022/03/05 09:40:35;;;;;;;9.38;7.15;;;6.10;81.10;;;;;;6290983;22;20003;-66
2022/03/05 09:43:02;;;;;;;12.48;8.38;;;6.30;79.40;;;;;;6290908;22;20007;-66
2022/03/05 09:45:28;;;;;;;11.30;7.13;;;6.60;78.30;;;;;;6292375;22;20026;-66
2022/03/05 09:47:56;;;;;;;18.92;13.38;;;6.80;77.00;;;;;;6293556;22;20387;-66
2022/03/05 09:50:24;;;;;;;19.80;13.63;;;7.00;76.20;;;;;;6291622;22;20011;-67
2022/03/05 09:52:50;;;;;;;21.20;16.33;;;7.20;76.30;;;;;;6290308;22;20003;-67
2022/03/05 09:55:16;;;;;;;18.65;13.93;;;7.30;73.40;;;;;;6291441;22;20112;-67
2022/03/05 09:57:42;;;;;;;8.88;7.20;;;7.20;74.10;;;;;;6294500;22;20011;-67
2022/03/05 10:00:08;;;;;;;10.95;7.60;;;7.20;71.50;;;;;;6295887;22;20014;-68
2022/03/05 10:02:34;;;;;;;21.10;7.13;;;7.10;71.50;;;;;;6291944;22;20082;-67
2022/03/05 10:05:16;;;;;;;8.80;6.88;;;7.10;71.90;;;;;;6292992;22;20034;-66
2022/03/05 10:07:58;;;;;;;;;;;7.20;69.80;;;;;;6294906;22;20035;-67
2022/03/05 10:10:24;;;;;;;9.32;6.78;;;7.30;69.10;;;;;;6295455;22;19898;-68
2022/03/05 10:12:50;;;;;;;8.48;6.13;;;7.40;68.30;;;;;;6295237;22;20098;-66
2022/03/05 10:15:21;;;;;;;12.98;6.28;;;7.60;68.50;;;;;;6294108;22;20534;-67
2022/03/05 10:17:58;;;;;;;8.73;6.03;;;7.80;70.10;;;;;;6265929;22;20035;-66
2022/03/05 10:20:29;;;;;;;7.90;5.80;;;7.90;66.60;;;;;;6290831;22;20387;-68
2022/03/05 10:23:00;;;;;;;21.15;6.93;;;7.80;64.50;;;;;;6294433;22;20003;-67
2022/03/05 10:25:42;;;;;;;12.57;6.22;;;7.60;65.70;;;;;;6293937;22;20007;-67
2022/03/05 10:28:28;;;;;;;11.75;6.55;;;7.50;65.40;;;;;;6295806;22;20007;-66
2022/03/05 10:31:02;;;;;;;15.70;8.30;;;7.30;64.00;;;;;;6293555;22;20002;-67
2022/03/05 10:33:35;;;;;;;10.45;5.95;;;7.30;65.30;;;;;;6294967;22;20068;-67
2022/03/05 10:36:09;;;;;;;10.50;7.10;;;7.50;65.20;;;;;;6294180;22;20025;-68
2022/03/05 10:38:54;;;;;;;9.25;5.88;;;7.70;65.60;;;;;;6294862;22;20585;-68
2022/03/05 10:41:41;;;;;;;11.18;7.15;;;8.00;65.70;;;;;;6293797;22;20646;-67
2022/03/05 10:44:11;;;;;;;8.23;6.13;;;8.30;64.90;;;;;;6293964;22;20031;-66
2022/03/05 10:46:55;;;;;;;17.73;14.93;;;8.40;63.30;;;;;;6293988;22;20534;-67
2022/03/05 10:49:28;;;;;;;21.15;13.90;;;8.20;62.90;;;;;;6294707;22;20026;-66
2022/03/05 10:52:00;;;;;;;11.65;5.63;;;8.20;62.50;;;;;;6294557;22;20009;-66
2022/03/05 10:54:27;;;;;;;13.13;5.97;;;8.20;61.50;;;;;;6293714;22;20460;-66
2022/03/05 10:57:09;;;;;;;6.85;5.20;;;8.10;60.70;;;;;;6292259;22;20053;-67
2022/03/05 10:59:40;;;;;;;12.23;5.53;;;8.10;59.30;;;;;;6293221;22;20003;-66
2022/03/05 11:02:07;;;;;;;11.65;5.50;;;7.90;59.10;;;;;;6267764;22;20003;-66
2022/03/05 11:04:35;;;;;;;6.60;5.28;;;7.90;59.00;;;;;;6295207;22;20000;-66
2022/03/05 11:07:02;;;;;;;9.73;6.22;;;8.00;58.80;;;;;;6294245;22;20060;-67
2022/03/05 11:09:29;;;;;;;10.82;7.75;;;8.20;58.30;;;;;;6293719;22;20007;-68
2022/03/05 11:11:57;;;;;;;13.55;6.85;;;8.30;59.00;;;;;;6295709;22;20011;-66
2022/03/05 11:14:24;;;;;;;8.80;6.55;;;8.40;60.20;;;;;;6293333;22;20436;-68
2022/03/05 11:16:50;;;;;;;9.25;6.03;;;8.60;60.50;;;;;;6294776;22;20086;-71
2022/03/05 11:19:16;;;;;;;9.13;6.53;;;8.50;60.70;;;;;;6292995;22;20441;-67
2022/03/05 11:21:42;;;;;;;8.98;6.50;;;8.40;62.30;;;;;;6294395;22;20003;-66
2022/03/05 11:24:11;;;;;;;7.40;6.10;;;8.40;61.30;;;;;;6291182;22;20057;-67
2022/03/05 11:26:38;;;;;;;8.57;6.30;;;8.20;61.20;;;;;;6295479;22;20042;-68
2022/03/05 11:29:04;;;;;;;9.15;6.90;;;8.00;61.10;;;;;;6293827;22;20340;-68
2022/03/05 11:31:32;;;;;;;8.48;6.35;;;7.60;61.10;;;;;;6296398;22;20003;-69
2022/03/05 11:34:11;;;;;;;13.57;9.45;;;7.50;61.30;;;;;;6297490;22;20305;-69
2022/03/05 11:36:38;;;;;;;9.55;6.05;;;7.40;62.80;;;;;;6294057;22;20031;-68
2022/03/05 11:39:27;;;;;;;10.13;5.72;;;7.50;62.00;;;;;;6296256;22;20006;-69
2022/03/05 11:42:03;;;;;;;7.22;5.93;;;7.50;58.80;;;;;;6295834;22;20010;-69
2022/03/05 11:44:38;;;;;;;7.30;5.82;;;7.30;58.80;;;;;;6295511;22;20060;-68
2022/03/05 11:47:24;;;;;;;11.45;7.57;;;7.30;59.80;;;;;;6292907;22;20497;-67
2022/03/05 11:49:56;;;;;;;7.53;5.10;;;7.40;59.60;;;;;;6295787;22;20003;-67
2022/03/05 11:52:22;;;;;;;6.97;5.07;;;7.50;59.00;;;;;;6295403;22;20003;-68
2022/03/05 11:55:24;;;;;;;6.90;4.88;;;7.50;57.00;;;;;;6293509;22;20004;-67
2022/03/05 11:57:52;;;;;;;8.02;5.32;;;7.40;57.10;;;;;;6229444;22;20003;-68
2022/03/05 12:00:24;;;;;;;8.55;5.85;;;7.30;58.10;;;;;;6295517;22;20071;-67
2022/03/05 12:02:51;;;;;;;13.40;5.85;;;7.30;59.20;;;;;;6295134;22;20606;-68
2022/03/05 12:05:40;;;;;;;10.68;6.05;;;7.30;59.30;;;;;;6293400;22;20064;-70
2022/03/05 12:08:08;;;;;;;8.23;5.90;;;7.50;59.80;;;;;;6294241;22;20015;-68
2022/03/05 12:10:35;;;;;;;7.20;5.80;;;7.60;57.30;;;;;;6295967;22;20035;-69
2022/03/05 12:13:03;;;;;;;7.18;5.75;;;7.50;57.20;;;;;;6296583;22;20090;-67
2022/03/05 12:15:43;;;;;;;8.00;6.72;;;7.40;57.30;;;;;;6296611;22;20003;-68
2022/03/05 12:18:14;;;;;;;34.55;30.90;;;7.50;57.20;;;;;;6294140;22;20029;-68
2022/03/05 12:20:43;;;;;;;6.93;5.60;;;7.60;57.00;;;;;;6294805;22;20003;-67
2022/03/05 12:23:11;;;;;;;7.95;5.32;;;7.70;56.20;;;;;;6295377;22;20003;-68
2022/03/05 12:25:39;;;;;;;7.88;5.45;;;7.70;57.50;;;;;;6295858;22;20031;-67
2022/03/05 12:28:17;;;;;;;7.07;5.53;;;7.80;57.00;;;;;;6293598;22;20450;-67
2022/03/05 12:30:44;;;;;;;6.57;5.88;;;7.80;58.00;;;;;;6295567;22;20064;-68
2022/03/05 12:33:15;;;;;;;7.47;6.05;;;7.80;56.90;;;;;;6295937;22;20052;-69
2022/03/05 12:35:43;;;;;;;9.90;6.73;;;7.80;57.80;;;;;;6295053;22;20027;-69
2022/03/05 12:38:11;;;;;;;11.48;6.65;;;7.80;56.90;;;;;;6294030;22;20236;-68
2022/03/05 12:40:37;;;;;;;7.93;6.25;;;7.70;57.00;;;;;;6295910;22;20012;-69
2022/03/05 12:43:07;;;;;;;10.02;7.90;;;7.60;57.70;;;;;;6295989;22;20029;-68
2022/03/05 12:45:38;;;;;;;9.85;6.32;;;7.50;58.80;;;;;;6288106;22;20061;-68
2022/03/05 12:48:22;;;;;;;7.50;6.70;;;7.50;57.30;;;;;;6294146;22;20348;-68
2022/03/05 12:50:50;;;;;;;8.68;5.53;;;7.40;56.50;;;;;;6294658;22;19999;-68
2022/03/05 12:53:26;;;;;;;12.00;9.57;;;7.40;58.20;;;;;;6291418;22;20015;-68
2022/03/05 12:55:57;;;;;;;9.85;6.78;;;7.40;57.80;;;;;;6293724;22;20019;-67
2022/03/05 12:58:31;;;;;;;7.60;5.93;;;7.50;57.30;;;;;;6294977;22;20006;-68
2022/03/05 13:01:06;;;;;;;6.28;4.90;;;7.50;57.30;;;;;;6287510;22;20420;-68
2022/03/05 13:03:32;;;;;;;21.35;15.98;;;7.50;57.10;;;;;;6293580;22;20223;-69
2022/03/05 13:05:59;;;;;;;12.50;8.07;;;7.60;57.10;;;;;;6292802;22;20413;-67
2022/03/05 13:08:33;;;;;;;7.38;5.40;;;7.60;57.70;;;;;;6293835;22;20453;-69
2022/03/05 13:11:12;;;;;;;7.10;4.68;;;7.50;57.60;;;;;;6295036;22;19995;-69
2022/03/05 13:13:47;;;;;;;8.05;4.40;;;7.40;57.00;;;;;;6295498;22;20018;-70
2022/03/05 13:16:29;;;;;;;7.07;4.63;;;7.40;56.50;;;;;;6293740;22;20375;-69
2022/03/05 13:18:55;;;;;;;5.78;4.03;;;7.40;55.70;;;;;;6294844;22;20082;-71
2022/03/05 13:21:21;;;;;;;6.18;4.07;;;7.50;56.80;;;;;;6293783;22;20027;-70
2022/03/05 13:23:47;;;;;;;5.47;3.85;;;7.50;56.70;;;;;;6294916;22;20508;-70
2022/03/05 13:26:12;;;;;;;5.30;4.20;;;7.60;55.70;;;;;;6294000;22;20439;-69
2022/03/05 13:28:38;;;;;;;6.03;3.97;;;7.60;55.20;;;;;;6294833;22;20007;-69
2022/03/05 13:31:05;;;;;;;4.60;3.80;;;7.60;54.90;;;;;;6294383;22;20007;-70
2022/03/05 13:33:34;;;;;;;4.72;4.20;;;7.60;55.00;;;;;;6295894;22;20042;-69
2022/03/05 13:36:10;;;;;;;5.60;4.00;;;7.60;55.20;;;;;;6293894;22;20520;-70
2022/03/05 13:38:36;;;;;;;7.30;4.45;;;7.70;56.30;;;;;;6294841;22;20003;-70
2022/03/05 13:41:04;;;;;;;5.97;4.05;;;7.60;55.20;;;;;;6293586;22;20023;-70
2022/03/05 13:43:33;;;;;;;5.95;4.25;;;7.70;54.30;;;;;;6295056;22;19999;-66
2022/03/05 13:45:59;;;;;;;6.20;3.75;;;7.60;54.60;;;;;;6295051;22;20125;-67
2022/03/05 13:48:27;;;;;;;6.68;4.38;;;7.70;54.40;;;;;;6296711;22;20436;-66
2022/03/05 13:50:53;;;;;;;5.13;3.42;;;7.70;54.60;;;;;;6294964;22;19999;-66
2022/03/05 13:53:21;;;;;;;5.32;3.95;;;7.70;54.20;;;;;;6294547;22;20380;-66